Time;durP1;ratioP1;P1;durP2;ratioP2;P2;SDS_P1;SDS_P2;PMS_P1;PMS_P2;Temp;Humidity;BMP_temperature;BMP_pressure;BME280_temperature;BME280_humidity;BME280_pressure;Samples;Min_cycle;Max_cycle;Signal;HPM_P1;HPM_P2
2021/07/15 00:02:48;;;;;;;8.32;5.30;;;;;;;;;;6096127;29;20060;-79
2021/07/15 00:05:51;;;;;;;5.63;5.03;;;;;;;;;;6097182;29;20139;-79
2021/07/15 00:08:56;;;;;;;6.93;5.20;;;;;;;;;;6096405;29;20104;-79
2021/07/15 00:11:58;;;;;;;6.47;4.80;;;;;;;;;;6098103;29;20068;-79
2021/07/15 00:15:01;;;;;;;7.53;5.50;;;;;;;;;;6095887;29;20040;-79
2021/07/15 00:18:06;;;;;;;5.35;4.78;;;;;;;;;;6117802;29;20043;-79
2021/07/15 00:21:11;;;;;;;5.60;4.72;;;;;;;;;;6119889;29;20087;-80
2021/07/15 00:24:13;;;;;;;6.72;6.03;;;;;;;;;;6120769;28;20052;-79
2021/07/15 00:27:14;;;;;;;6.22;4.78;;;;;;;;;;6119092;29;20063;-79
2021/07/15 00:30:16;;;;;;;6.40;4.90;;;;;;;;;;6131799;29;20036;-79
2021/07/15 00:33:18;;;;;;;6.70;5.05;;;;;;;;;;6100877;29;20139;-79
2021/07/15 00:36:21;;;;;;;6.70;4.40;;;;;;;;;;6133461;29;20430;-79
2021/07/15 00:39:22;;;;;;;4.97;4.35;;;;;;;;;;6101857;29;20138;-80
2021/07/15 00:42:24;;;;;;;5.10;4.60;;;;;;;;;;6119197;28;20055;-79
2021/07/15 00:45:26;;;;;;;6.70;4.90;;;;;;;;;;6133310;29;20091;-80
2021/07/15 00:48:27;;;;;;;5.55;4.47;;;;;;;;;;6118775;29;20048;-79
2021/07/15 00:51:30;;;;;;;5.28;4.78;;;;;;;;;;6135947;29;20044;-79
2021/07/15 00:54:32;;;;;;;6.22;4.93;;;;;;;;;;6120513;29;20411;-79
2021/07/15 00:57:34;;;;;;;5.88;5.05;;;;;;;;;;6121807;28;20127;-79
2021/07/15 01:00:39;;;;;;;5.82;4.43;;;;;;;;;;6119978;29;20522;-79
2021/07/15 01:03:41;;;;;;;6.25;4.40;;;;;;;;;;6135811;28;20055;-79
2021/07/15 01:06:42;;;;;;;5.95;5.00;;;;;;;;;;6120920;29;20135;-79
2021/07/15 01:09:44;;;;;;;4.97;4.18;;;;;;;;;;6136073;28;20111;-79
2021/07/15 01:12:56;;;;;;;6.77;4.77;;;;;;;;;;6121092;29;20134;-79
2021/07/15 01:16:25;;;;;;;8.27;4.57;;;;;;;;;;6122110;29;20047;-79
2021/07/15 01:19:53;;;;;;;5.10;4.60;;;;;;;;;;6108170;29;20048;-79
2021/07/15 01:23:10;;;;;;;5.03;4.53;;;;;;;;;;6139230;29;20525;-79
2021/07/15 01:26:33;;;;;;;5.70;4.78;;;;;;;;;;6123851;29;20040;-80
2021/07/15 01:29:54;;;;;;;4.78;4.25;;;;;;;;;;6123565;29;20094;-79
2021/07/15 01:33:15;;;;;;;4.60;4.20;;;;;;;;;;6125236;29;20048;-79
2021/07/15 01:36:22;;;;;;;4.75;4.22;;;;;;;;;;6125680;28;20058;-80
2021/07/15 01:39:30;;;;;;;5.35;4.68;;;;;;;;;;6142163;28;20054;-80
2021/07/15 01:42:33;;;;;;;6.03;5.25;;;;;;;;;;6144975;28;20055;-80
2021/07/15 01:45:35;;;;;;;;;;;;;;;;;;6188294;28;20070;-79
2021/07/15 01:48:38;;;;;;;6.75;4.95;;;;;;;;;;6127804;28;19926;-80
2021/07/15 01:51:40;;;;;;;8.00;5.60;;;;;;;;;;6139213;28;20126;-79
2021/07/15 01:54:43;;;;;;;5.95;5.05;;;;;;;;;;6161267;28;20163;-79
2021/07/15 01:57:49;;;;;;;5.60;4.80;;;;;;;;;;6147883;28;20047;-80
2021/07/15 02:00:50;;;;;;;4.88;4.22;;;;;;;;;;6137542;28;20043;-79
2021/07/15 02:03:56;;;;;;;4.73;4.07;;;;;;;;;;6122305;29;20051;-80
2021/07/15 02:07:00;;;;;;;6.25;3.92;;;;;;;;;;6122603;28;20527;-80
2021/07/15 02:10:08;;;;;;;4.13;3.72;;;;;;;;;;6134959;28;20047;-80
2021/07/15 02:13:11;;;;;;;5.78;3.90;;;;;;;;;;6135665;28;20078;-80
2021/07/15 02:16:15;;;;;;;4.82;3.85;;;;;;;;;;6139662;28;20057;-79
2021/07/15 02:19:19;;;;;;;4.57;3.83;;;;;;;;;;6100257;29;20395;-79
2021/07/15 02:22:22;;;;;;;5.60;4.15;;;;;;;;;;6098504;29;20044;-79
2021/07/15 02:25:25;;;;;;;9.25;4.20;;;;;;;;;;6111477;29;20049;-79
2021/07/15 02:28:27;;;;;;;3.78;3.20;;;;;;;;;;6122160;29;20118;-79
2021/07/15 02:31:35;;;;;;;3.87;3.37;;;;;;;;;;6137027;29;20071;-79
2021/07/15 02:34:54;;;;;;;5.32;3.53;;;;;;;;;;6138135;29;20051;-79
2021/07/15 02:37:57;;;;;;;4.15;3.22;;;;;;;;;;6124345;29;20107;-79
2021/07/15 02:40:59;;;;;;;6.28;4.13;;;;;;;;;;6121488;29;20150;-79
2021/07/15 02:44:01;;;;;;;4.90;3.75;;;;;;;;;;6114489;29;20102;-79
2021/07/15 02:47:03;;;;;;;4.20;3.78;;;;;;;;;;6102427;29;20731;-78
2021/07/15 02:50:06;;;;;;;6.07;3.95;;;;;;;;;;6096393;29;20126;-78
2021/07/15 02:53:08;;;;;;;4.13;3.72;;;;;;;;;;6097035;29;20139;-78
2021/07/15 02:56:10;;;;;;;5.45;4.00;;;;;;;;;;6110995;29;20111;-78
2021/07/15 02:59:24;;;;;;;7.45;3.85;;;;;;;;;;6098837;29;20171;-78
2021/07/15 03:02:29;;;;;;;5.25;3.60;;;;;;;;;;6108854;29;20131;-78
2021/07/15 03:05:38;;;;;;;5.28;4.30;;;;;;;;;;6096378;29;20116;-77
2021/07/15 03:08:49;;;;;;;5.72;4.13;;;;;;;;;;6095698;29;20446;-78
2021/07/15 03:12:03;;;;;;;4.85;3.97;;;;;;;;;;6094565;29;20190;-77
2021/07/15 03:15:06;;;;;;;5.32;4.18;;;;;;;;;;6092537;29;20096;-78
2021/07/15 03:18:09;;;;;;;7.65;4.40;;;;;;;;;;6114835;29;20064;-77
2021/07/15 03:21:12;;;;;;;8.27;4.60;;;;;;;;;;6116784;29;20108;-78
2021/07/15 03:24:17;;;;;;;7.55;4.65;;;;;;;;;;6118100;29;20102;-78
2021/07/15 03:27:21;;;;;;;7.35;5.45;;;;;;;;;;6132088;28;20453;-78
2021/07/15 03:30:25;;;;;;;7.32;5.80;;;;;;;;;;6158197;28;20516;-78
2021/07/15 03:33:27;;;;;;;9.25;6.35;;;;;;;;;;6137190;28;20118;-79
2021/07/15 03:36:31;;;;;;;8.02;5.93;;;;;;;;;;6133651;29;20549;-78
2021/07/15 03:39:33;;;;;;;7.32;5.78;;;;;;;;;;6117935;28;20049;-79
2021/07/15 03:42:37;;;;;;;9.13;5.57;;;;;;;;;;6119075;29;20047;-80
2021/07/15 03:45:38;;;;;;;;;;;;;;;;;;6133439;29;20215;-79
2021/07/15 03:48:43;;;;;;;13.85;7.10;;;;;;;;;;6119494;29;20030;-78
2021/07/15 03:51:46;;;;;;;14.43;8.10;;;;;;;;;;6119242;29;20067;-77
2021/07/15 03:54:49;;;;;;;15.52;7.90;;;;;;;;;;6132934;29;20075;-77
2021/07/15 03:57:52;;;;;;;14.68;7.03;;;;;;;;;;6118899;29;20517;-77
2021/07/15 04:01:02;;;;;;;12.48;7.40;;;;;;;;;;6133168;28;20133;-78
2021/07/15 04:04:07;;;;;;;13.25;7.07;;;;;;;;;;6119069;29;20039;-77
2021/07/15 04:07:09;;;;;;;15.50;8.07;;;;;;;;;;6133903;29;20179;-78
2021/07/15 04:10:12;;;;;;;13.93;7.13;;;;;;;;;;6119313;29;20051;-77
2021/07/15 04:13:14;;;;;;;;;;;;;;;;;;6118472;29;20044;-78
2021/07/15 04:16:21;;;;;;;11.57;6.60;;;;;;;;;;6119038;28;19926;-78
2021/07/15 04:19:24;;;;;;;11.63;7.03;;;;;;;;;;6134452;28;20039;-78
2021/07/15 04:22:29;;;;;;;11.35;6.80;;;;;;;;;;6124138;28;20179;-78
2021/07/15 04:25:31;;;;;;;14.05;7.13;;;;;;;;;;6132014;28;20538;-78
2021/07/15 04:28:33;;;;;;;10.13;6.68;;;;;;;;;;6109899;29;20051;-78
2021/07/15 04:31:37;;;;;;;9.48;6.13;;;;;;;;;;6116255;28;20118;-78
2021/07/15 04:34:40;;;;;;;9.05;6.65;;;;;;;;;;6131062;28;20047;-77
2021/07/15 04:37:43;;;;;;;7.22;4.88;;;;;;;;;;6152105;28;20118;-78
2021/07/15 04:40:48;;;;;;;6.15;4.90;;;;;;;;;;6123322;28;20134;-78
2021/07/15 04:43:52;;;;;;;6.63;5.03;;;;;;;;;;6106737;29;20047;-78
2021/07/15 04:46:55;;;;;;;7.32;5.22;;;;;;;;;;6113399;28;20107;-78
2021/07/15 04:49:58;;;;;;;8.15;5.90;;;;;;;;;;6116989;28;20070;-78
2021/07/15 04:53:03;;;;;;;8.75;6.10;;;;;;;;;;6112153;28;20518;-78
2021/07/15 04:56:06;;;;;;;8.98;5.78;;;;;;;;;;6119373;28;20118;-77
2021/07/15 04:59:08;;;;;;;7.82;5.28;;;;;;;;;;6103003;29;20056;-78
2021/07/15 05:02:10;;;;;;;8.52;5.72;;;;;;;;;;6111298;29;20531;-78
2021/07/15 05:05:13;;;;;;;8.52;5.93;;;;;;;;;;6112184;29;20056;-78
2021/07/15 05:08:15;;;;;;;7.38;5.70;;;;;;;;;;6107619;29;20127;-77
2021/07/15 05:11:17;;;;;;;9.40;6.22;;;;;;;;;;6127842;28;20134;-77
2021/07/15 05:14:19;;;;;;;9.68;6.45;;;;;;;;;;6143043;28;20770;-78
2021/07/15 05:17:20;;;;;;;6.78;5.15;;;;;;;;;;6105833;29;20056;-78
2021/07/15 05:20:22;;;;;;;9.35;6.07;;;;;;;;;;6094071;29;20510;-78
2021/07/15 05:23:24;;;;;;;8.18;6.00;;;;;;;;;;6093628;29;20056;-78
2021/07/15 05:26:26;;;;;;;9.93;5.70;;;;;;;;;;6138270;28;20110;-78
2021/07/15 05:29:28;;;;;;;6.30;5.05;;;;;;;;;;6144729;28;20541;-78
2021/07/15 05:32:33;;;;;;;6.60;4.30;;;;;;;;;;6129505;28;20103;-78
2021/07/15 05:35:37;;;;;;;8.13;4.95;;;;;;;;;;6102902;29;20088;-78
2021/07/15 05:38:42;;;;;;;8.85;5.50;;;;;;;;;;6120074;28;20534;-78
2021/07/15 05:41:45;;;;;;;6.72;5.57;;;;;;;;;;6085428;29;20182;-78
2021/07/15 05:44:48;;;;;;;8.80;5.53;;;;;;;;;;6093363;29;20044;-78
2021/07/15 05:47:50;;;;;;;8.13;5.30;;;;;;;;;;6109864;29;20132;-78
2021/07/15 05:50:51;;;;;;;5.68;4.60;;;;;;;;;;6118196;29;20067;-77
2021/07/15 05:53:53;;;;;;;4.43;4.03;;;;;;;;;;6117523;29;20071;-78
2021/07/15 05:56:54;;;;;;;4.43;3.42;;;;;;;;;;6120736;28;20080;-78
2021/07/15 05:59:56;;;;;;;5.65;3.35;;;;;;;;;;6126426;28;20528;-77
2021/07/15 06:02:58;;;;;;;5.93;3.40;;;;;;;;;;6138152;28;20047;-77
2021/07/15 06:06:00;;;;;;;3.90;3.40;;;;;;;;;;6156172;28;20050;-77
2021/07/15 06:09:02;;;;;;;4.30;3.88;;;;;;;;;;6141366;28;20507;-78
2021/07/15 06:12:04;;;;;;;4.05;3.65;;;;;;;;;;6136386;28;20055;-78
2021/07/15 06:15:06;;;;;;;4.03;3.60;;;;;;;;;;6142665;28;20622;-78
2021/07/15 06:18:08;;;;;;;4.73;3.60;;;;;;;;;;6141165;28;20050;-78
2021/07/15 06:21:10;;;;;;;4.95;2.30;;;;;;;;;;6119427;28;20976;-78
2021/07/15 06:24:12;;;;;;;2.70;2.50;;;;;;;;;;6119409;28;20055;-78
2021/07/15 06:27:13;;;;;;;2.70;2.03;;;;;;;;;;6111872;29;20127;-78
2021/07/15 06:30:15;;;;;;;2.15;1.95;;;;;;;;;;6100839;28;20219;-78
2021/07/15 06:33:17;;;;;;;1.85;1.70;;;;;;;;;;6142933;28;20520;-79
2021/07/15 06:36:18;;;;;;;2.50;2.30;;;;;;;;;;6140938;28;20478;-78
2021/07/15 06:39:20;;;;;;;1.80;1.70;;;;;;;;;;6147880;28;20075;-78
2021/07/15 06:42:25;;;;;;;1.73;1.60;;;;;;;;;;6138568;28;20675;-78
2021/07/15 06:45:26;;;;;;;1.23;1.13;;;;;;;;;;6146144;28;20178;-78
2021/07/15 06:48:28;;;;;;;1.65;1.30;;;;;;;;;;6121087;29;20044;-78
2021/07/15 06:51:30;;;;;;;2.33;1.20;;;;;;;;;;6126003;28;20039;-78
2021/07/15 06:54:32;;;;;;;1.50;1.40;;;;;;;;;;6135232;28;20075;-78
2021/07/15 06:57:34;;;;;;;3.47;1.17;;;;;;;;;;6118977;29;20071;-78
2021/07/15 07:00:37;;;;;;;1.52;1.10;;;;;;;;;;6125761;28;20050;-78
2021/07/15 07:03:39;;;;;;;1.98;1.00;;;;;;;;;;6135620;28;20062;-77
2021/07/15 07:06:41;;;;;;;0.90;0.90;;;;;;;;;;6141129;28;20572;-78
2021/07/15 07:09:43;;;;;;;1.00;1.00;;;;;;;;;;6133143;28;20444;-77
2021/07/15 07:12:45;;;;;;;0.93;0.90;;;;;;;;;;6142202;28;20074;-78
2021/07/15 07:15:47;;;;;;;1.45;0.82;;;;;;;;;;6140686;28;20122;-78
2021/07/15 07:18:48;;;;;;;0.60;0.60;;;;;;;;;;6133531;28;20130;-77
2021/07/15 07:21:58;;;;;;;0.77;0.77;;;;;;;;;;6117816;29;20044;-78
2021/07/15 07:24:59;;;;;;;2.05;0.88;;;;;;;;;;6138066;28;20145;-78
2021/07/15 07:28:01;;;;;;;0.85;0.85;;;;;;;;;;6118555;29;20044;-78
2021/07/15 07:31:03;;;;;;;2.83;1.00;;;;;;;;;;6131823;28;20537;-78
2021/07/15 07:34:04;;;;;;;1.15;1.05;;;;;;;;;;6116756;29;20429;-78
2021/07/15 07:37:06;;;;;;;1.00;1.00;;;;;;;;;;6131125;29;20083;-79
2021/07/15 07:40:09;;;;;;;1.30;1.20;;;;;;;;;;6122965;28;20141;-78
2021/07/15 07:43:17;;;;;;;1.10;1.00;;;;;;;;;;6136469;28;20051;-78
2021/07/15 07:46:18;;;;;;;1.73;1.00;;;;;;;;;;6137567;28;20746;-78
2021/07/15 07:49:20;;;;;;;1.25;1.15;;;;;;;;;;6139490;28;20224;-78
2021/07/15 07:52:22;;;;;;;2.50;1.00;;;;;;;;;;6154732;28;20131;-78
2021/07/15 07:55:24;;;;;;;1.50;1.02;;;;;;;;;;6138352;28;20047;-78
2021/07/15 07:58:26;;;;;;;1.05;1.00;;;;;;;;;;6153506;28;20076;-78
2021/07/15 08:01:30;;;;;;;1.08;1.08;;;;;;;;;;6136109;28;20096;-78
2021/07/15 08:04:32;;;;;;;1.95;1.10;;;;;;;;;;6136579;28;20043;-78
2021/07/15 08:07:34;;;;;;;3.05;1.10;;;;;;;;;;6135932;28;20724;-78
2021/07/15 08:10:36;;;;;;;1.60;1.30;;;;;;;;;;6134257;28;20047;-78
2021/07/15 08:13:38;;;;;;;1.70;1.60;;;;;;;;;;6134687;28;20055;-78
2021/07/15 08:16:40;;;;;;;1.33;1.20;;;;;;;;;;6130432;28;20051;-78
2021/07/15 08:19:42;;;;;;;1.98;1.25;;;;;;;;;;6136521;28;20052;-78
2021/07/15 08:22:44;;;;;;;1.85;1.38;;;;;;;;;;6140335;28;20086;-78
2021/07/15 08:25:46;;;;;;;2.58;1.42;;;;;;;;;;6122778;28;20146;-78
2021/07/15 08:28:48;;;;;;;1.40;1.30;;;;;;;;;;6136153;28;20090;-79
2021/07/15 08:31:50;;;;;;;2.00;1.27;;;;;;;;;;6135805;28;20521;-78
2021/07/15 08:34:52;;;;;;;1.15;1.10;;;;;;;;;;6121027;29;20565;-79
2021/07/15 08:37:55;;;;;;;1.30;1.20;;;;;;;;;;6095577;29;20055;-79
2021/07/15 08:40:57;;;;;;;1.20;1.20;;;;;;;;;;6100170;29;20053;-79
2021/07/15 08:43:59;;;;;;;2.17;1.15;;;;;;;;;;6120155;29;20532;-78
2021/07/15 08:47:01;;;;;;;1.50;1.23;;;;;;;;;;6107758;29;20047;-78
2021/07/15 08:50:05;;;;;;;1.30;1.20;;;;;;;;;;6131437;29;20059;-78
2021/07/15 08:53:07;;;;;;;1.58;1.40;;;;;;;;;;6119289;28;20505;-78
2021/07/15 08:59:32;;;;;;;1.42;1.13;;;;;;;;;;6116278;28;20051;-79
2021/07/15 09:02:34;;;;;;;2.57;1.10;;;;;;;;;;6109807;29;20071;-78
2021/07/15 09:05:37;;;;;;;1.23;1.13;;;;;;;;;;6111993;29;20051;-78
2021/07/15 09:08:39;;;;;;;1.88;1.15;;;;;;;;;;6138460;28;20057;-78
2021/07/15 09:11:42;;;;;;;1.88;1.10;;;;;;;;;;6133167;28;20047;-78
2021/07/15 09:14:50;;;;;;;;;;;;;;;;;;6140619;28;20043;-78
2021/07/15 09:17:52;;;;;;;1.67;1.20;;;;;;;;;;6131864;28;19982;-78
2021/07/15 09:20:54;;;;;;;1.40;1.30;;;;;;;;;;6144575;28;20416;-78
2021/07/15 09:23:55;;;;;;;1.38;1.20;;;;;;;;;;6139191;28;20175;-79
2021/07/15 09:26:59;;;;;;;1.33;1.23;;;;;;;;;;6141849;28;20412;-79
2021/07/15 09:30:11;;;;;;;1.58;1.27;;;;;;;;;;6145403;28;20067;-78
2021/07/15 09:33:16;;;;;;;1.45;1.35;;;;;;;;;;6140457;28;20130;-78
2021/07/15 09:36:20;;;;;;;1.63;1.40;;;;;;;;;;6135500;29;20096;-79
2021/07/15 09:39:29;;;;;;;1.60;1.10;;;;;;;;;;6138346;28;20055;-79
2021/07/15 09:42:30;;;;;;;1.17;1.08;;;;;;;;;;6147149;28;20070;-79
2021/07/15 09:45:32;;;;;;;1.02;1.00;;;;;;;;;;6140038;28;20051;-79
2021/07/15 09:48:33;;;;;;;1.10;1.10;;;;;;;;;;6124613;28;20055;-78
2021/07/15 09:51:40;;;;;;;1.45;1.10;;;;;;;;;;6120785;29;20140;-78
2021/07/15 09:54:42;;;;;;;1.17;1.10;;;;;;;;;;6103936;29;20433;-79
2021/07/15 09:57:44;;;;;;;3.58;1.20;;;;;;;;;;6118596;29;20048;-78
2021/07/15 10:00:46;;;;;;;1.35;1.10;;;;;;;;;;6136844;28;20110;-78
2021/07/15 10:03:49;;;;;;;1.30;1.20;;;;;;;;;;6119849;29;20132;-78
2021/07/15 10:06:51;;;;;;;;;;;;;;;;;;6120620;29;20051;-78
2021/07/15 10:10:19;;;;;;;1.20;1.10;;;;;;;;;;6119711;29;19975;-78
2021/07/15 10:13:24;;;;;;;0.75;0.73;;;;;;;;;;6118255;29;20436;-78
2021/07/15 10:16:29;;;;;;;1.90;1.10;;;;;;;;;;6115317;28;20417;-78
2021/07/15 10:19:30;;;;;;;1.10;1.10;;;;;;;;;;6131866;28;20144;-79
2021/07/15 10:22:32;;;;;;;1.75;1.20;;;;;;;;;;6159004;28;20118;-81
2021/07/15 10:25:34;;;;;;;1.35;1.25;;;;;;;;;;6138889;28;20126;-82
2021/07/15 10:28:37;;;;;;;1.00;1.00;;;;;;;;;;6142879;28;20051;-81
2021/07/15 10:31:40;;;;;;;1.70;1.00;;;;;;;;;;6140544;28;20059;-82
2021/07/15 10:34:44;;;;;;;1.85;0.90;;;;;;;;;;6123876;28;20081;-81
2021/07/15 10:37:48;;;;;;;1.08;0.90;;;;;;;;;;6140815;28;20066;-81
2021/07/15 10:40:50;;;;;;;2.65;1.00;;;;;;;;;;6141278;28;20184;-81
2021/07/15 10:43:53;;;;;;;3.67;1.10;;;;;;;;;;6140023;28;20059;-80
2021/07/15 10:47:00;;;;;;;1.33;1.20;;;;;;;;;;6134896;28;20544;-80
2021/07/15 10:50:03;;;;;;;;;;;;;;;;;;6151084;28;20579;-80
2021/07/15 10:53:06;;;;;;;1.20;1.00;;;;;;;;;;6134903;28;19930;-80
2021/07/15 10:56:08;;;;;;;1.02;0.90;;;;;;;;;;6136278;28;20083;-81
2021/07/15 10:59:30;;;;;;;;;;;;;;;;;;6137443;28;20070;-80
2021/07/15 11:02:32;;;;;;;0.90;0.85;;;;;;;;;;6136124;28;20517;-80
2021/07/15 11:05:45;;;;;;;1.58;1.00;;;;;;;;;;6139816;28;20079;-80
2021/07/15 11:08:53;;;;;;;1.10;1.00;;;;;;;;;;6127831;28;20093;-81
2021/07/15 11:11:57;;;;;;;1.67;0.93;;;;;;;;;;6127579;28;20178;-81
2021/07/15 11:15:11;;;;;;;1.45;1.05;;;;;;;;;;6115277;29;20648;-81
2021/07/15 11:18:40;;;;;;;1.45;1.00;;;;;;;;;;6135205;28;20054;-81
2021/07/15 11:21:57;;;;;;;2.30;0.90;;;;;;;;;;6154850;28;20117;-82
2021/07/15 11:25:05;;;;;;;2.42;0.80;;;;;;;;;;6138267;28;20051;-80
2021/07/15 11:28:10;;;;;;;1.65;0.90;;;;;;;;;;6132678;28;20198;-80
2021/07/15 11:31:37;;;;;;;2.58;1.10;;;;;;;;;;6134393;28;20138;-80
2021/07/15 11:34:40;;;;;;;1.88;1.23;;;;;;;;;;6112497;29;20146;-78
2021/07/15 11:37:41;;;;;;;;;;;;;;;;;;6112248;29;20150;-80
2021/07/15 11:40:44;;;;;;;2.60;1.10;;;;;;;;;;6113564;28;20304;-80
2021/07/15 11:43:56;;;;;;;0.75;0.75;;;;;;;;;;6110573;29;20142;-81
2021/07/15 11:46:57;;;;;;;0.70;0.70;;;;;;;;;;6118387;28;20055;-80
2021/07/15 11:50:00;;;;;;;0.70;0.70;;;;;;;;;;6130708;29;20156;-80
2021/07/15 11:53:22;;;;;;;2.05;0.95;;;;;;;;;;6130070;29;20071;-80
2021/07/15 11:56:24;;;;;;;3.25;1.00;;;;;;;;;;6115359;28;20560;-80
2021/07/15 11:59:37;;;;;;;1.75;0.82;;;;;;;;;;6121563;28;20055;-81
2021/07/15 12:02:43;;;;;;;1.05;0.80;;;;;;;;;;6141650;28;20083;-80
2021/07/15 12:05:46;;;;;;;0.85;0.85;;;;;;;;;;6117516;29;20092;-81
2021/07/15 12:08:47;;;;;;;0.80;0.80;;;;;;;;;;6117548;28;20058;-81
2021/07/15 12:11:52;;;;;;;0.98;0.80;;;;;;;;;;6117418;29;20051;-80
2021/07/15 12:14:54;;;;;;;1.45;0.80;;;;;;;;;;6114106;29;20050;-79
2021/07/15 12:18:10;;;;;;;1.73;0.90;;;;;;;;;;6113192;28;20206;-80
2021/07/15 12:21:13;;;;;;;2.20;0.90;;;;;;;;;;6128795;29;20130;-80
2021/07/15 12:24:16;;;;;;;1.20;1.08;;;;;;;;;;6111569;28;20040;-80
2021/07/15 12:27:20;;;;;;;19.75;6.47;;;;;;;;;;6113647;29;20082;-80
2021/07/15 12:30:23;;;;;;;3.05;1.35;;;;;;;;;;6112367;29;20147;-79
2021/07/15 12:33:38;;;;;;;1.33;1.20;;;;;;;;;;6113711;28;20533;-79
2021/07/15 12:36:41;;;;;;;1.30;1.00;;;;;;;;;;6133088;29;20075;-78
2021/07/15 12:39:43;;;;;;;1.17;1.08;;;;;;;;;;6135035;28;20079;-81
2021/07/15 12:42:45;;;;;;;0.90;0.90;;;;;;;;;;6133922;29;20744;-79
2021/07/15 12:45:47;;;;;;;0.90;0.90;;;;;;;;;;6113684;28;20170;-79
2021/07/15 12:48:55;;;;;;;1.42;1.33;;;;;;;;;;6135587;28;20043;-80
2021/07/15 12:52:02;;;;;;;1.52;1.00;;;;;;;;;;6142041;28;20047;-82
2021/07/15 12:55:05;;;;;;;0.90;0.90;;;;;;;;;;6130327;28;20067;-80
2021/07/15 12:58:07;;;;;;;0.93;0.90;;;;;;;;;;6089829;29;20056;-81
2021/07/15 13:01:09;;;;;;;0.88;0.88;;;;;;;;;;6107925;29;20054;-81
2021/07/15 13:04:12;;;;;;;0.80;0.80;;;;;;;;;;6091556;29;20048;-78
2021/07/15 13:07:21;;;;;;;1.15;0.80;;;;;;;;;;6127176;28;20138;-80
2021/07/15 13:17:07;;;;;;;1.25;1.10;;;;;;;;;;6139911;28;20047;-80
2021/07/15 13:20:09;;;;;;;3.75;1.73;;;;;;;;;;6123799;29;20183;-80
2021/07/15 13:23:11;;;;;;;1.35;1.00;;;;;;;;;;6135997;29;20051;-78
2021/07/15 13:26:13;;;;;;;;;;;;;;;;;;6139001;28;20047;-78
2021/07/15 13:29:15;;;;;;;2.17;0.97;;;;;;;;;;6142171;28;19926;-78
2021/07/15 13:32:18;;;;;;;2.35;1.10;;;;;;;;;;6131831;28;20126;-78
2021/07/15 13:35:22;;;;;;;1.17;1.08;;;;;;;;;;6118115;29;20060;-78
2021/07/15 13:38:25;;;;;;;0.95;0.80;;;;;;;;;;6116104;29;20047;-78
2021/07/15 13:41:30;;;;;;;2.70;0.93;;;;;;;;;;6132583;28;20048;-79
2021/07/15 13:44:32;;;;;;;1.35;0.90;;;;;;;;;;6139905;29;20122;-79
2021/07/15 13:47:41;;;;;;;0.82;0.82;;;;;;;;;;6145956;28;20047;-79
2021/07/15 13:50:50;;;;;;;1.75;1.00;;;;;;;;;;6127203;29;20058;-80
2021/07/15 13:53:52;;;;;;;1.95;0.77;;;;;;;;;;6132356;28;20043;-79
2021/07/15 13:56:57;;;;;;;0.73;0.73;;;;;;;;;;6143856;28;20063;-79
2021/07/15 14:00:05;;;;;;;0.93;0.90;;;;;;;;;;6116728;28;20645;-79
2021/07/15 14:03:15;;;;;;;1.20;1.10;;;;;;;;;;6118964;28;20048;-79
2021/07/15 14:06:17;;;;;;;1.30;0.98;;;;;;;;;;6118605;28;20063;-79
2021/07/15 14:09:19;;;;;;;1.10;1.10;;;;;;;;;;6116794;28;20052;-81
2021/07/15 14:12:21;;;;;;;0.98;0.98;;;;;;;;;;6120266;28;20532;-80
2021/07/15 14:15:25;;;;;;;1.00;0.90;;;;;;;;;;6131938;28;20143;-79
2021/07/15 14:18:29;;;;;;;1.10;1.00;;;;;;;;;;6109436;28;20439;-78
2021/07/15 14:21:30;;;;;;;1.67;1.10;;;;;;;;;;6105500;29;20047;-77
2021/07/15 14:24:32;;;;;;;1.27;1.07;;;;;;;;;;6111749;29;20540;-77
2021/07/15 14:27:34;;;;;;;1.13;0.90;;;;;;;;;;6096036;29;20756;-77
2021/07/15 14:30:39;;;;;;;1.70;1.20;;;;;;;;;;6102869;29;20163;-77
2021/07/15 14:33:41;;;;;;;1.60;1.10;;;;;;;;;;6089232;29;20063;-77
2021/07/15 14:36:43;;;;;;;3.03;1.13;;;;;;;;;;6087643;29;20188;-77
2021/07/15 14:39:44;;;;;;;3.20;1.10;;;;;;;;;;6092819;29;20198;-77
2021/07/15 14:42:47;;;;;;;1.73;1.20;;;;;;;;;;6121903;28;20433;-80
2021/07/15 14:45:49;;;;;;;2.55;1.00;;;;;;;;;;6120450;28;20409;-80
2021/07/15 14:48:50;;;;;;;0.90;0.90;;;;;;;;;;6124005;28;20047;-80
2021/07/15 14:51:54;;;;;;;2.05;0.90;;;;;;;;;;6122765;28;20508;-80
2021/07/15 14:54:56;;;;;;;3.00;1.20;;;;;;;;;;6119598;29;20051;-80
2021/07/15 14:57:58;;;;;;;0.93;0.93;;;;;;;;;;6123106;28;20082;-79
2021/07/15 15:01:00;;;;;;;3.38;1.13;;;;;;;;;;6119679;28;20421;-78
2021/07/15 15:04:02;;;;;;;3.17;1.10;;;;;;;;;;6114561;29;20058;-78
2021/07/15 15:07:03;;;;;;;0.98;0.98;;;;;;;;;;6117153;29;20052;-77
2021/07/15 15:10:09;;;;;;;1.13;1.02;;;;;;;;;;6118172;29;20138;-77
2021/07/15 15:13:11;;;;;;;0.90;0.90;;;;;;;;;;6105968;29;20044;-77
2021/07/15 15:16:14;;;;;;;1.10;1.05;;;;;;;;;;6128431;29;20047;-77
2021/07/15 15:19:16;;;;;;;;;;;;;;;;;;6115607;28;20139;-78
2021/07/15 15:22:18;;;;;;;0.95;0.90;;;;;;;;;;6117187;28;19927;-77
2021/07/15 15:25:19;;;;;;;1.30;1.00;;;;;;;;;;6110015;28;20055;-77
2021/07/15 15:28:21;;;;;;;1.20;1.05;;;;;;;;;;6094941;29;20124;-77
2021/07/15 15:31:23;;;;;;;1.27;1.00;;;;;;;;;;6111717;28;20091;-77
2021/07/15 15:34:25;;;;;;;2.35;0.90;;;;;;;;;;6090475;29;20111;-77
2021/07/15 15:37:26;;;;;;;0.90;0.90;;;;;;;;;;6095531;29;20076;-80
2021/07/15 15:40:28;;;;;;;1.00;1.00;;;;;;;;;;6100390;29;20103;-80
2021/07/15 15:43:30;;;;;;;1.43;1.00;;;;;;;;;;6098663;29;20464;-80
2021/07/15 15:46:31;;;;;;;1.30;1.20;;;;;;;;;;6090395;29;20079;-80
2021/07/15 15:49:34;;;;;;;1.10;1.00;;;;;;;;;;6123662;29;20451;-79
2021/07/15 15:52:38;;;;;;;2.67;1.13;;;;;;;;;;6122677;29;20480;-80
2021/07/15 15:55:40;;;;;;;0.90;0.90;;;;;;;;;;6151419;28;20043;-80
2021/07/15 15:58:44;;;;;;;1.30;1.20;;;;;;;;;;6119843;29;20047;-80
2021/07/15 16:01:49;;;;;;;1.00;1.00;;;;;;;;;;6113727;28;20502;-81
2021/07/15 16:04:52;;;;;;;1.20;1.10;;;;;;;;;;6111711;28;20080;-79
2021/07/15 16:07:58;;;;;;;1.15;1.00;;;;;;;;;;6156395;28;20071;-78
2021/07/15 16:11:00;;;;;;;1.20;1.10;;;;;;;;;;6140844;28;20076;-79
2021/07/15 16:14:03;;;;;;;1.53;1.10;;;;;;;;;;6118860;28;20088;-79
2021/07/15 16:17:04;;;;;;;1.83;1.00;;;;;;;;;;6139068;28;20055;-79
2021/07/15 16:20:15;;;;;;;1.20;1.10;;;;;;;;;;6120352;28;20076;-78
2021/07/15 16:23:17;;;;;;;0.90;0.90;;;;;;;;;;6119918;29;20120;-79
2021/07/15 16:26:19;;;;;;;;;;;;;;;;;;6123190;28;20064;-80
2021/07/15 16:29:21;;;;;;;2.67;1.30;;;;;;;;;;6121392;28;19923;-78
2021/07/15 16:32:22;;;;;;;1.73;0.90;;;;;;;;;;6122706;29;20128;-80
2021/07/15 16:35:24;;;;;;;1.98;1.20;;;;;;;;;;6123011;29;20051;-80
2021/07/15 16:38:29;;;;;;;1.00;1.00;;;;;;;;;;6136728;28;20058;-80
2021/07/15 16:41:31;;;;;;;1.30;1.20;;;;;;;;;;6118455;29;20521;-81
2021/07/15 16:44:34;;;;;;;1.40;1.30;;;;;;;;;;6119715;29;20122;-80
2021/07/15 16:47:35;;;;;;;1.40;1.30;;;;;;;;;;6133725;28;20050;-81
2021/07/15 16:50:38;;;;;;;1.88;1.60;;;;;;;;;;6151787;28;20114;-81
2021/07/15 16:53:40;;;;;;;1.50;1.40;;;;;;;;;;6163722;28;20070;-81
2021/07/15 16:56:42;;;;;;;1.77;1.50;;;;;;;;;;6150456;28;20106;-80
2021/07/15 16:59:44;;;;;;;1.55;1.45;;;;;;;;;;6151192;28;20102;-80
2021/07/15 17:02:45;;;;;;;1.67;1.57;;;;;;;;;;6127972;28;20052;-78
2021/07/15 17:05:50;;;;;;;1.50;1.40;;;;;;;;;;6120326;29;20055;-80
2021/07/15 17:08:51;;;;;;;1.67;1.40;;;;;;;;;;6126726;29;20067;-81
2021/07/15 17:11:53;;;;;;;4.13;2.10;;;;;;;;;;6146009;28;20071;-81
2021/07/15 17:14:56;;;;;;;2.40;1.45;;;;;;;;;;6148991;28;20043;-81
2021/07/15 17:17:58;;;;;;;2.83;1.60;;;;;;;;;;6148470;28;20246;-80
2021/07/15 17:21:00;;;;;;;3.03;1.30;;;;;;;;;;6124527;29;20148;-79
2021/07/15 17:24:03;;;;;;;1.65;1.45;;;;;;;;;;6120841;29;20572;-79
2021/07/15 17:27:05;;;;;;;1.60;1.50;;;;;;;;;;6124348;28;20063;-79
2021/07/15 17:30:08;;;;;;;2.00;1.90;;;;;;;;;;6122906;28;20125;-79
2021/07/15 17:33:10;;;;;;;1.80;1.50;;;;;;;;;;6141285;28;20648;-79
2021/07/15 17:36:14;;;;;;;1.70;1.40;;;;;;;;;;6146541;28;20097;-79
2021/07/15 17:39:16;;;;;;;3.75;1.70;;;;;;;;;;6145586;28;20047;-79
2021/07/15 17:42:18;;;;;;;2.87;1.60;;;;;;;;;;6133120;28;20055;-80
2021/07/15 17:45:20;;;;;;;2.50;1.92;;;;;;;;;;6125771;28;20677;-79
2021/07/15 17:48:21;;;;;;;4.97;1.80;;;;;;;;;;6127945;28;20918;-79
2021/07/15 17:51:23;;;;;;;2.20;1.42;;;;;;;;;;6132586;28;20131;-79
2021/07/15 17:54:25;;;;;;;1.33;1.23;;;;;;;;;;6132092;28;20058;-79
2021/07/15 17:57:27;;;;;;;1.10;1.10;;;;;;;;;;6130588;28;20150;-79
2021/07/15 18:00:29;;;;;;;1.77;1.35;;;;;;;;;;6139162;28;20110;-79
2021/07/15 18:03:31;;;;;;;1.40;1.30;;;;;;;;;;6138460;28;20051;-79
2021/07/15 18:06:35;;;;;;;2.70;1.20;;;;;;;;;;6123886;29;20048;-79
2021/07/15 18:09:39;;;;;;;1.40;1.00;;;;;;;;;;6140998;28;20517;-80
2021/07/15 18:12:49;;;;;;;1.45;1.35;;;;;;;;;;6145380;28;20047;-78
2021/07/15 18:15:51;;;;;;;2.05;1.50;;;;;;;;;;6152308;28;20045;-78
2021/07/15 18:18:53;;;;;;;2.92;1.60;;;;;;;;;;6119513;28;20497;-78
2021/07/15 18:21:57;;;;;;;1.40;1.30;;;;;;;;;;6119391;29;20047;-78
2021/07/15 18:24:59;;;;;;;1.40;1.30;;;;;;;;;;6119790;28;20094;-78
2021/07/15 18:28:02;;;;;;;2.05;1.20;;;;;;;;;;6132648;29;20149;-78
2021/07/15 18:31:04;;;;;;;;;;;;;;;;;;6116780;29;20052;-78
2021/07/15 18:34:06;;;;;;;1.98;1.60;;;;;;;;;;6116558;29;19978;-78
2021/07/15 18:37:08;;;;;;;2.13;1.50;;;;;;;;;;6118151;29;20401;-78